sensor_id;sensor_type;location;lat;lon;timestamp;P1;durP1;ratioP1;P2;durP2;ratioP2
19347;SDS011;9810;52.480;9.806;2023-06-26T00:00:06;8.80;;;6.50;;
19347;SDS011;9810;52.480;9.806;2023-06-26T00:02:36;6.38;;;5.68;;
19347;SDS011;9810;52.480;9.806;2023-06-26T00:05:06;7.28;;;6.55;;
19347;SDS011;9810;52.480;9.806;2023-06-26T00:07:33;10.52;;;7.10;;
19347;SDS011;9810;52.480;9.806;2023-06-26T00:10:01;6.82;;;5.90;;
19347;SDS011;9810;52.480;9.806;2023-06-26T00:12:29;6.68;;;5.47;;
19347;SDS011;9810;52.480;9.806;2023-06-26T00:14:56;8.02;;;6.78;;
19347;SDS011;9810;52.480;9.806;2023-06-26T00:17:23;6.50;;;5.72;;
19347;SDS011;9810;52.480;9.806;2023-06-26T00:19:51;8.57;;;7.10;;
19347;SDS011;9810;52.480;9.806;2023-06-26T00:22:20;7.10;;;6.40;;
19347;SDS011;9810;52.480;9.806;2023-06-26T00:24:48;8.45;;;6.82;;
19347;SDS011;9810;52.480;9.806;2023-06-26T00:27:14;8.95;;;6.90;;
19347;SDS011;9810;52.480;9.806;2023-06-26T00:29:42;11.30;;;6.13;;
19347;SDS011;9810;52.480;9.806;2023-06-26T00:32:09;7.32;;;6.63;;
19347;SDS011;9810;52.480;9.806;2023-06-26T00:34:37;8.88;;;6.50;;
19347;SDS011;9810;52.480;9.806;2023-06-26T00:37:04;8.23;;;6.40;;
19347;SDS011;9810;52.480;9.806;2023-06-26T00:39:32;5.80;;;5.30;;
19347;SDS011;9810;52.480;9.806;2023-06-26T00:42:00;10.55;;;6.68;;
19347;SDS011;9810;52.480;9.806;2023-06-26T00:44:27;6.93;;;6.05;;
19347;SDS011;9810;52.480;9.806;2023-06-26T00:46:55;12.20;;;6.93;;
19347;SDS011;9810;52.480;9.806;2023-06-26T00:49:22;6.80;;;6.05;;
19347;SDS011;9810;52.480;9.806;2023-06-26T00:51:51;8.00;;;6.18;;
19347;SDS011;9810;52.480;9.806;2023-06-26T00:54:18;6.07;;;5.47;;
19347;SDS011;9810;52.480;9.806;2023-06-26T00:56:48;7.40;;;5.82;;
19347;SDS011;9810;52.480;9.806;2023-06-26T00:59:16;8.38;;;7.15;;
19347;SDS011;9810;52.480;9.806;2023-06-26T01:01:43;6.65;;;5.97;;
19347;SDS011;9810;52.480;9.806;2023-06-26T01:04:11;6.65;;;5.88;;
19347;SDS011;9810;52.480;9.806;2023-06-26T01:06:42;8.63;;;6.63;;
19347;SDS011;9810;52.480;9.806;2023-06-26T01:09:14;6.63;;;5.93;;
19347;SDS011;9810;52.480;9.806;2023-06-26T01:11:43;8.70;;;6.50;;
19347;SDS011;9810;52.480;9.806;2023-06-26T01:14:11;8.38;;;6.25;;
19347;SDS011;9810;52.480;9.806;2023-06-26T01:16:39;7.57;;;5.93;;
19347;SDS011;9810;52.480;9.806;2023-06-26T01:19:13;7.35;;;6.00;;
19347;SDS011;9810;52.480;9.806;2023-06-26T01:21:51;10.48;;;6.70;;
19347;SDS011;9810;52.480;9.806;2023-06-26T01:24:23;8.45;;;6.57;;
19347;SDS011;9810;52.480;9.806;2023-06-26T01:26:59;8.15;;;6.40;;
19347;SDS011;9810;52.480;9.806;2023-06-26T01:29:28;8.80;;;6.22;;
19347;SDS011;9810;52.480;9.806;2023-06-26T01:31:57;8.07;;;6.15;;
19347;SDS011;9810;52.480;9.806;2023-06-26T01:34:25;7.70;;;5.90;;
19347;SDS011;9810;52.480;9.806;2023-06-26T01:36:53;7.07;;;6.28;;
19347;SDS011;9810;52.480;9.806;2023-06-26T01:39:20;8.50;;;5.93;;
19347;SDS011;9810;52.480;9.806;2023-06-26T01:41:48;10.07;;;7.45;;
19347;SDS011;9810;52.480;9.806;2023-06-26T01:44:20;7.07;;;6.38;;
19347;SDS011;9810;52.480;9.806;2023-06-26T01:46:59;8.27;;;6.93;;
19347;SDS011;9810;52.480;9.806;2023-06-26T01:49:31;6.93;;;6.25;;
19347;SDS011;9810;52.480;9.806;2023-06-26T01:52:07;8.20;;;6.00;;
19347;SDS011;9810;52.480;9.806;2023-06-26T01:54:42;10.52;;;6.95;;
19347;SDS011;9810;52.480;9.806;2023-06-26T01:57:15;8.88;;;6.72;;
19347;SDS011;9810;52.480;9.806;2023-06-26T01:59:47;9.00;;;6.85;;
19347;SDS011;9810;52.480;9.806;2023-06-26T02:02:14;9.07;;;6.25;;
19347;SDS011;9810;52.480;9.806;2023-06-26T02:04:42;8.63;;;6.22;;
19347;SDS011;9810;52.480;9.806;2023-06-26T02:07:09;8.52;;;6.07;;
19347;SDS011;9810;52.480;9.806;2023-06-26T02:09:36;8.00;;;6.10;;
19347;SDS011;9810;52.480;9.806;2023-06-26T02:12:04;7.45;;;6.00;;
19347;SDS011;9810;52.480;9.806;2023-06-26T02:14:31;7.93;;;6.18;;
19347;SDS011;9810;52.480;9.806;2023-06-26T02:17:00;7.43;;;6.28;;
19347;SDS011;9810;52.480;9.806;2023-06-26T02:19:29;7.30;;;6.47;;
19347;SDS011;9810;52.480;9.806;2023-06-26T02:21:56;8.10;;;6.32;;
19347;SDS011;9810;52.480;9.806;2023-06-26T02:24:23;7.53;;;6.47;;
19347;SDS011;9810;52.480;9.806;2023-06-26T02:26:52;8.60;;;5.93;;
19347;SDS011;9810;52.480;9.806;2023-06-26T02:29:19;9.88;;;6.32;;
19347;SDS011;9810;52.480;9.806;2023-06-26T02:31:47;8.30;;;5.80;;
19347;SDS011;9810;52.480;9.806;2023-06-26T02:34:16;8.13;;;6.25;;
19347;SDS011;9810;52.480;9.806;2023-06-26T02:36:43;10.00;;;6.38;;
19347;SDS011;9810;52.480;9.806;2023-06-26T02:39:10;6.97;;;5.72;;
19347;SDS011;9810;52.480;9.806;2023-06-26T02:41:39;10.73;;;6.00;;
19347;SDS011;9810;52.480;9.806;2023-06-26T02:44:06;7.10;;;5.72;;
19347;SDS011;9810;52.480;9.806;2023-06-26T02:46:33;6.30;;;5.60;;
19347;SDS011;9810;52.480;9.806;2023-06-26T02:49:01;8.20;;;6.10;;
19347;SDS011;9810;52.480;9.806;2023-06-26T02:51:31;7.28;;;6.13;;
19347;SDS011;9810;52.480;9.806;2023-06-26T02:53:59;9.15;;;6.70;;
19347;SDS011;9810;52.480;9.806;2023-06-26T02:56:27;6.82;;;6.10;;
19347;SDS011;9810;52.480;9.806;2023-06-26T02:58:54;8.70;;;6.22;;
19347;SDS011;9810;52.480;9.806;2023-06-26T03:01:22;8.05;;;5.68;;
19347;SDS011;9810;52.480;9.806;2023-06-26T03:03:49;9.32;;;6.63;;
19347;SDS011;9810;52.480;9.806;2023-06-26T03:06:16;6.55;;;5.88;;
19347;SDS011;9810;52.480;9.806;2023-06-26T03:08:45;10.75;;;5.97;;
19347;SDS011;9810;52.480;9.806;2023-06-26T03:11:12;7.28;;;5.60;;
19347;SDS011;9810;52.480;9.806;2023-06-26T03:13:40;10.38;;;5.80;;
19347;SDS011;9810;52.480;9.806;2023-06-26T03:16:07;8.38;;;6.28;;
19347;SDS011;9810;52.480;9.806;2023-06-26T03:18:34;9.90;;;5.40;;
19347;SDS011;9810;52.480;9.806;2023-06-26T03:21:02;13.23;;;7.15;;
19347;SDS011;9810;52.480;9.806;2023-06-26T03:23:29;6.93;;;5.68;;
19347;SDS011;9810;52.480;9.806;2023-06-26T03:25:58;7.68;;;5.95;;
19347;SDS011;9810;52.480;9.806;2023-06-26T03:28:25;7.55;;;6.00;;
19347;SDS011;9810;52.480;9.806;2023-06-26T03:30:53;6.65;;;5.28;;
19347;SDS011;9810;52.480;9.806;2023-06-26T03:33:20;8.90;;;5.35;;
19347;SDS011;9810;52.480;9.806;2023-06-26T03:35:47;9.70;;;6.45;;
19347;SDS011;9810;52.480;9.806;2023-06-26T03:38:15;9.77;;;5.70;;
19347;SDS011;9810;52.480;9.806;2023-06-26T03:40:42;9.50;;;5.90;;
19347;SDS011;9810;52.480;9.806;2023-06-26T03:43:11;8.85;;;5.63;;
19347;SDS011;9810;52.480;9.806;2023-06-26T03:45:38;11.63;;;5.55;;
19347;SDS011;9810;52.480;9.806;2023-06-26T03:48:06;8.60;;;5.63;;
19347;SDS011;9810;52.480;9.806;2023-06-26T03:50:33;7.38;;;4.68;;
19347;SDS011;9810;52.480;9.806;2023-06-26T03:53:00;8.05;;;4.85;;
19347;SDS011;9810;52.480;9.806;2023-06-26T03:55:28;7.43;;;4.97;;
19347;SDS011;9810;52.480;9.806;2023-06-26T03:57:55;9.05;;;5.63;;
19347;SDS011;9810;52.480;9.806;2023-06-26T04:00:24;8.70;;;5.40;;
19347;SDS011;9810;52.480;9.806;2023-06-26T04:02:51;12.85;;;5.35;;
19347;SDS011;9810;52.480;9.806;2023-06-26T04:05:19;8.10;;;5.53;;
19347;SDS011;9810;52.480;9.806;2023-06-26T04:07:49;7.47;;;4.97;;
19347;SDS011;9810;52.480;9.806;2023-06-26T04:10:16;6.60;;;5.60;;
19347;SDS011;9810;52.480;9.806;2023-06-26T04:12:45;13.65;;;5.88;;
19347;SDS011;9810;52.480;9.806;2023-06-26T04:15:13;7.88;;;5.15;;
19347;SDS011;9810;52.480;9.806;2023-06-26T04:17:42;10.13;;;5.53;;
19347;SDS011;9810;52.480;9.806;2023-06-26T04:20:09;10.30;;;5.28;;
19347;SDS011;9810;52.480;9.806;2023-06-26T04:22:37;10.18;;;5.28;;
19347;SDS011;9810;52.480;9.806;2023-06-26T04:25:04;7.70;;;5.25;;
19347;SDS011;9810;52.480;9.806;2023-06-26T04:27:32;7.50;;;5.40;;
19347;SDS011;9810;52.480;9.806;2023-06-26T04:29:59;7.35;;;4.60;;
19347;SDS011;9810;52.480;9.806;2023-06-26T04:32:27;11.60;;;5.50;;
19347;SDS011;9810;52.480;9.806;2023-06-26T04:34:55;6.78;;;4.70;;
19347;SDS011;9810;52.480;9.806;2023-06-26T04:37:23;8.43;;;5.00;;
19347;SDS011;9810;52.480;9.806;2023-06-26T04:39:51;8.35;;;5.28;;
19347;SDS011;9810;52.480;9.806;2023-06-26T04:42:18;12.88;;;5.40;;
19347;SDS011;9810;52.480;9.806;2023-06-26T04:44:46;10.88;;;4.78;;
19347;SDS011;9810;52.480;9.806;2023-06-26T04:47:14;6.68;;;5.18;;
19347;SDS011;9810;52.480;9.806;2023-06-26T04:49:41;8.80;;;4.70;;
19347;SDS011;9810;52.480;9.806;2023-06-26T04:52:12;5.65;;;4.32;;
19347;SDS011;9810;52.480;9.806;2023-06-26T04:54:40;10.38;;;5.15;;
19347;SDS011;9810;52.480;9.806;2023-06-26T04:57:07;5.13;;;4.40;;
19347;SDS011;9810;52.480;9.806;2023-06-26T04:59:37;8.07;;;4.90;;
19347;SDS011;9810;52.480;9.806;2023-06-26T05:02:04;6.20;;;4.50;;
19347;SDS011;9810;52.480;9.806;2023-06-26T05:04:32;4.97;;;4.38;;
19347;SDS011;9810;52.480;9.806;2023-06-26T05:06:59;8.27;;;4.78;;
19347;SDS011;9810;52.480;9.806;2023-06-26T05:09:28;5.38;;;4.40;;
19347;SDS011;9810;52.480;9.806;2023-06-26T05:11:55;9.02;;;5.18;;
19347;SDS011;9810;52.480;9.806;2023-06-26T05:14:23;5.03;;;4.50;;
19347;SDS011;9810;52.480;9.806;2023-06-26T05:16:50;7.25;;;4.20;;
19347;SDS011;9810;52.480;9.806;2023-06-26T05:19:17;6.93;;;4.85;;
19347;SDS011;9810;52.480;9.806;2023-06-26T05:21:45;5.30;;;4.13;;
19347;SDS011;9810;52.480;9.806;2023-06-26T05:24:13;5.78;;;4.65;;
19347;SDS011;9810;52.480;9.806;2023-06-26T05:26:45;10.05;;;4.53;;
19347;SDS011;9810;52.480;9.806;2023-06-26T05:29:12;7.97;;;5.47;;
19347;SDS011;9810;52.480;9.806;2023-06-26T05:31:40;8.82;;;4.60;;
19347;SDS011;9810;52.480;9.806;2023-06-26T05:34:08;5.82;;;4.10;;
19347;SDS011;9810;52.480;9.806;2023-06-26T05:36:38;8.10;;;4.80;;
19347;SDS011;9810;52.480;9.806;2023-06-26T05:39:07;5.53;;;4.32;;
19347;SDS011;9810;52.480;9.806;2023-06-26T05:41:35;6.97;;;4.43;;
19347;SDS011;9810;52.480;9.806;2023-06-26T05:44:05;6.55;;;4.18;;
19347;SDS011;9810;52.480;9.806;2023-06-26T05:46:32;6.68;;;4.30;;
19347;SDS011;9810;52.480;9.806;2023-06-26T05:48:59;6.93;;;4.40;;
19347;SDS011;9810;52.480;9.806;2023-06-26T05:51:28;6.90;;;4.72;;
19347;SDS011;9810;52.480;9.806;2023-06-26T05:53:55;7.50;;;4.13;;
19347;SDS011;9810;52.480;9.806;2023-06-26T05:56:23;5.80;;;4.45;;
19347;SDS011;9810;52.480;9.806;2023-06-26T05:58:51;7.85;;;4.20;;
19347;SDS011;9810;52.480;9.806;2023-06-26T06:01:20;5.65;;;4.45;;
19347;SDS011;9810;52.480;9.806;2023-06-26T06:03:47;5.93;;;4.10;;
19347;SDS011;9810;52.480;9.806;2023-06-26T06:06:15;4.97;;;4.32;;
19347;SDS011;9810;52.480;9.806;2023-06-26T06:08:42;7.55;;;4.50;;
19347;SDS011;9810;52.480;9.806;2023-06-26T06:11:09;4.32;;;3.70;;
19347;SDS011;9810;52.480;9.806;2023-06-26T06:13:37;5.85;;;4.30;;
19347;SDS011;9810;52.480;9.806;2023-06-26T06:16:04;4.90;;;4.13;;
19347;SDS011;9810;52.480;9.806;2023-06-26T06:18:33;5.45;;;3.92;;
19347;SDS011;9810;52.480;9.806;2023-06-26T06:21:01;8.00;;;4.70;;
19347;SDS011;9810;52.480;9.806;2023-06-26T06:23:28;6.05;;;3.78;;
19347;SDS011;9810;52.480;9.806;2023-06-26T06:25:55;4.38;;;3.97;;
19347;SDS011;9810;52.480;9.806;2023-06-26T06:28:23;5.22;;;4.55;;
19347;SDS011;9810;52.480;9.806;2023-06-26T06:30:50;7.95;;;4.18;;
19347;SDS011;9810;52.480;9.806;2023-06-26T06:33:18;8.07;;;4.05;;
19347;SDS011;9810;52.480;9.806;2023-06-26T06:35:47;5.78;;;3.78;;
19347;SDS011;9810;52.480;9.806;2023-06-26T06:38:14;4.95;;;4.22;;
19347;SDS011;9810;52.480;9.806;2023-06-26T06:40:41;4.38;;;3.90;;
19347;SDS011;9810;52.480;9.806;2023-06-26T06:43:09;4.47;;;3.75;;
19347;SDS011;9810;52.480;9.806;2023-06-26T06:45:36;5.85;;;4.10;;
19347;SDS011;9810;52.480;9.806;2023-06-26T06:48:04;5.10;;;4.15;;
19347;SDS011;9810;52.480;9.806;2023-06-26T06:50:31;5.55;;;4.00;;
19347;SDS011;9810;52.480;9.806;2023-06-26T06:53:00;4.65;;;3.60;;
19347;SDS011;9810;52.480;9.806;2023-06-26T06:55:27;7.68;;;4.18;;
19347;SDS011;9810;52.480;9.806;2023-06-26T06:57:55;6.50;;;4.13;;
19347;SDS011;9810;52.480;9.806;2023-06-26T07:00:22;5.18;;;4.32;;
19347;SDS011;9810;52.480;9.806;2023-06-26T07:02:49;4.97;;;4.13;;
19347;SDS011;9810;52.480;9.806;2023-06-26T07:05:17;5.68;;;4.40;;
19347;SDS011;9810;52.480;9.806;2023-06-26T07:07:44;5.40;;;4.07;;
19347;SDS011;9810;52.480;9.806;2023-06-26T07:10:13;6.32;;;4.43;;
19347;SDS011;9810;52.480;9.806;2023-06-26T07:12:41;4.75;;;4.25;;
19347;SDS011;9810;52.480;9.806;2023-06-26T07:15:09;4.57;;;3.85;;
19347;SDS011;9810;52.480;9.806;2023-06-26T07:17:37;7.88;;;4.63;;
19347;SDS011;9810;52.480;9.806;2023-06-26T07:20:05;6.25;;;4.50;;
19347;SDS011;9810;52.480;9.806;2023-06-26T07:22:33;9.98;;;4.88;;
19347;SDS011;9810;52.480;9.806;2023-06-26T07:25:01;5.60;;;4.45;;
19347;SDS011;9810;52.480;9.806;2023-06-26T07:27:30;6.72;;;4.57;;
19347;SDS011;9810;52.480;9.806;2023-06-26T07:29:58;4.78;;;3.83;;
19347;SDS011;9810;52.480;9.806;2023-06-26T07:32:25;5.43;;;4.28;;
19347;SDS011;9810;52.480;9.806;2023-06-26T07:34:53;11.50;;;4.70;;
19347;SDS011;9810;52.480;9.806;2023-06-26T07:37:20;5.90;;;4.40;;
19347;SDS011;9810;52.480;9.806;2023-06-26T07:39:48;10.75;;;5.10;;
19347;SDS011;9810;52.480;9.806;2023-06-26T07:42:15;5.00;;;4.28;;
19347;SDS011;9810;52.480;9.806;2023-06-26T07:44:44;6.25;;;4.90;;
19347;SDS011;9810;52.480;9.806;2023-06-26T07:47:12;6.22;;;4.60;;
19347;SDS011;9810;52.480;9.806;2023-06-26T07:49:39;7.35;;;4.38;;
19347;SDS011;9810;52.480;9.806;2023-06-26T07:52:07;5.05;;;4.05;;
19347;SDS011;9810;52.480;9.806;2023-06-26T07:54:35;8.13;;;4.32;;
19347;SDS011;9810;52.480;9.806;2023-06-26T07:57:03;6.13;;;4.53;;
19347;SDS011;9810;52.480;9.806;2023-06-26T07:59:32;6.03;;;4.32;;
19347;SDS011;9810;52.480;9.806;2023-06-26T08:02:01;6.45;;;4.25;;
19347;SDS011;9810;52.480;9.806;2023-06-26T08:04:28;5.22;;;4.20;;
19347;SDS011;9810;52.480;9.806;2023-06-26T08:06:58;7.57;;;4.63;;
19347;SDS011;9810;52.480;9.806;2023-06-26T08:09:26;5.97;;;4.35;;
19347;SDS011;9810;52.480;9.806;2023-06-26T08:11:55;6.97;;;4.32;;
19347;SDS011;9810;52.480;9.806;2023-06-26T08:14:23;7.85;;;4.78;;
19347;SDS011;9810;52.480;9.806;2023-06-26T08:16:50;7.03;;;4.72;;
19347;SDS011;9810;52.480;9.806;2023-06-26T08:19:19;4.75;;;4.20;;
19347;SDS011;9810;52.480;9.806;2023-06-26T08:21:47;6.90;;;4.50;;
19347;SDS011;9810;52.480;9.806;2023-06-26T08:24:14;4.93;;;4.43;;
19347;SDS011;9810;52.480;9.806;2023-06-26T08:26:44;6.78;;;4.60;;
19347;SDS011;9810;52.480;9.806;2023-06-26T08:29:11;7.47;;;4.63;;
19347;SDS011;9810;52.480;9.806;2023-06-26T08:31:39;7.03;;;4.20;;
19347;SDS011;9810;52.480;9.806;2023-06-26T08:34:07;6.13;;;4.97;;
19347;SDS011;9810;52.480;9.806;2023-06-26T08:36:36;6.38;;;4.90;;
19347;SDS011;9810;52.480;9.806;2023-06-26T08:39:04;4.70;;;3.85;;
19347;SDS011;9810;52.480;9.806;2023-06-26T08:41:31;6.70;;;4.82;;
19347;SDS011;9810;52.480;9.806;2023-06-26T08:43:58;6.70;;;4.47;;
19347;SDS011;9810;52.480;9.806;2023-06-26T08:46:26;6.30;;;4.47;;
19347;SDS011;9810;52.480;9.806;2023-06-26T08:48:55;8.93;;;5.22;;
19347;SDS011;9810;52.480;9.806;2023-06-26T08:51:23;10.38;;;5.03;;
19347;SDS011;9810;52.480;9.806;2023-06-26T08:53:56;8.77;;;4.97;;
19347;SDS011;9810;52.480;9.806;2023-06-26T08:56:25;15.95;;;4.80;;
19347;SDS011;9810;52.480;9.806;2023-06-26T08:58:55;11.10;;;4.50;;
19347;SDS011;9810;52.480;9.806;2023-06-26T09:01:22;8.55;;;5.65;;
19347;SDS011;9810;52.480;9.806;2023-06-26T09:03:50;8.18;;;5.68;;
19347;SDS011;9810;52.480;9.806;2023-06-26T09:06:18;6.63;;;5.18;;
19347;SDS011;9810;52.480;9.806;2023-06-26T09:08:46;9.90;;;5.70;;
19347;SDS011;9810;52.480;9.806;2023-06-26T09:11:15;7.55;;;5.22;;
19347;SDS011;9810;52.480;9.806;2023-06-26T09:13:42;10.57;;;6.47;;
19347;SDS011;9810;52.480;9.806;2023-06-26T09:16:12;11.82;;;7.45;;
19347;SDS011;9810;52.480;9.806;2023-06-26T09:18:40;10.23;;;6.53;;
19347;SDS011;9810;52.480;9.806;2023-06-26T09:21:08;15.63;;;6.32;;
19347;SDS011;9810;52.480;9.806;2023-06-26T09:23:36;7.80;;;6.15;;
19347;SDS011;9810;52.480;9.806;2023-06-26T09:26:06;14.35;;;5.88;;
19347;SDS011;9810;52.480;9.806;2023-06-26T09:28:35;6.90;;;6.00;;
19347;SDS011;9810;52.480;9.806;2023-06-26T09:31:04;9.57;;;5.63;;
19347;SDS011;9810;52.480;9.806;2023-06-26T09:33:33;7.85;;;6.47;;
19347;SDS011;9810;52.480;9.806;2023-06-26T09:36:05;12.50;;;6.25;;
19347;SDS011;9810;52.480;9.806;2023-06-26T09:38:33;7.88;;;6.22;;
19347;SDS011;9810;52.480;9.806;2023-06-26T09:41:03;11.00;;;6.65;;
19347;SDS011;9810;52.480;9.806;2023-06-26T09:43:30;9.35;;;6.97;;
19347;SDS011;9810;52.480;9.806;2023-06-26T09:45:59;10.85;;;7.35;;
19347;SDS011;9810;52.480;9.806;2023-06-26T09:48:27;9.23;;;6.90;;
19347;SDS011;9810;52.480;9.806;2023-06-26T09:50:55;9.70;;;7.03;;
19347;SDS011;9810;52.480;9.806;2023-06-26T09:53:22;8.75;;;7.63;;
19347;SDS011;9810;52.480;9.806;2023-06-26T09:55:49;9.75;;;6.47;;
19347;SDS011;9810;52.480;9.806;2023-06-26T09:58:17;13.48;;;6.93;;
19347;SDS011;9810;52.480;9.806;2023-06-26T10:00:44;10.65;;;6.40;;
19347;SDS011;9810;52.480;9.806;2023-06-26T10:03:13;10.63;;;6.95;;
19347;SDS011;9810;52.480;9.806;2023-06-26T10:05:41;10.88;;;7.65;;
19347;SDS011;9810;52.480;9.806;2023-06-26T10:08:09;21.45;;;8.90;;
19347;SDS011;9810;52.480;9.806;2023-06-26T10:10:39;11.40;;;7.78;;
19347;SDS011;9810;52.480;9.806;2023-06-26T10:13:08;13.38;;;8.05;;
19347;SDS011;9810;52.480;9.806;2023-06-26T10:15:41;12.13;;;8.18;;
19347;SDS011;9810;52.480;9.806;2023-06-26T10:18:12;16.65;;;8.77;;
19347;SDS011;9810;52.480;9.806;2023-06-26T10:20:42;12.88;;;8.15;;
19347;SDS011;9810;52.480;9.806;2023-06-26T10:23:11;11.57;;;8.55;;
19347;SDS011;9810;52.480;9.806;2023-06-26T10:25:40;16.08;;;8.70;;
19347;SDS011;9810;52.480;9.806;2023-06-26T10:28:12;9.82;;;7.63;;
19347;SDS011;9810;52.480;9.806;2023-06-26T10:30:41;9.30;;;7.53;;
19347;SDS011;9810;52.480;9.806;2023-06-26T10:33:13;10.30;;;8.52;;
19347;SDS011;9810;52.480;9.806;2023-06-26T10:35:42;12.13;;;7.55;;
19347;SDS011;9810;52.480;9.806;2023-06-26T10:38:10;16.23;;;7.53;;
19347;SDS011;9810;52.480;9.806;2023-06-26T10:40:40;11.85;;;7.05;;
19347;SDS011;9810;52.480;9.806;2023-06-26T10:43:10;10.45;;;7.60;;
19347;SDS011;9810;52.480;9.806;2023-06-26T10:45:43;12.65;;;7.22;;
19347;SDS011;9810;52.480;9.806;2023-06-26T10:48:14;8.10;;;7.25;;
19347;SDS011;9810;52.480;9.806;2023-06-26T10:50:42;19.75;;;9.40;;
19347;SDS011;9810;52.480;9.806;2023-06-26T10:53:21;14.55;;;8.57;;
19347;SDS011;9810;52.480;9.806;2023-06-26T10:55:54;13.38;;;8.65;;
19347;SDS011;9810;52.480;9.806;2023-06-26T10:58:29;15.07;;;8.38;;
19347;SDS011;9810;52.480;9.806;2023-06-26T11:03:46;14.25;;;8.88;;
19347;SDS011;9810;52.480;9.806;2023-06-26T11:06:18;12.40;;;9.15;;
19347;SDS011;9810;52.480;9.806;2023-06-26T11:08:47;16.77;;;9.65;;
19347;SDS011;9810;52.480;9.806;2023-06-26T11:11:15;16.58;;;9.32;;
19347;SDS011;9810;52.480;9.806;2023-06-26T11:13:42;14.68;;;9.50;;
19347;SDS011;9810;52.480;9.806;2023-06-26T11:16:12;16.15;;;9.55;;
19347;SDS011;9810;52.480;9.806;2023-06-26T11:18:40;14.55;;;8.55;;
19347;SDS011;9810;52.480;9.806;2023-06-26T11:21:09;12.18;;;8.60;;
19347;SDS011;9810;52.480;9.806;2023-06-26T11:23:39;12.98;;;8.75;;
19347;SDS011;9810;52.480;9.806;2023-06-26T11:26:14;15.27;;;9.55;;
19347;SDS011;9810;52.480;9.806;2023-06-26T11:28:48;10.10;;;7.88;;
19347;SDS011;9810;52.480;9.806;2023-06-26T11:31:26;11.80;;;8.38;;
19347;SDS011;9810;52.480;9.806;2023-06-26T11:33:55;11.82;;;8.30;;
19347;SDS011;9810;52.480;9.806;2023-06-26T11:36:25;15.55;;;8.93;;
19347;SDS011;9810;52.480;9.806;2023-06-26T11:38:53;9.73;;;7.78;;
19347;SDS011;9810;52.480;9.806;2023-06-26T11:41:21;10.30;;;8.02;;
19347;SDS011;9810;52.480;9.806;2023-06-26T11:43:49;14.95;;;8.27;;
19347;SDS011;9810;52.480;9.806;2023-06-26T11:46:17;14.45;;;7.80;;
19347;SDS011;9810;52.480;9.806;2023-06-26T11:48:47;11.00;;;7.78;;
19347;SDS011;9810;52.480;9.806;2023-06-26T11:51:14;11.43;;;8.23;;
19347;SDS011;9810;52.480;9.806;2023-06-26T11:53:44;16.15;;;7.53;;
19347;SDS011;9810;52.480;9.806;2023-06-26T11:56:13;8.25;;;4.95;;
19347;SDS011;9810;52.480;9.806;2023-06-26T11:58:57;6.57;;;4.20;;
19347;SDS011;9810;52.480;9.806;2023-06-26T12:01:26;7.53;;;4.97;;
19347;SDS011;9810;52.480;9.806;2023-06-26T12:03:58;6.45;;;4.43;;
19347;SDS011;9810;52.480;9.806;2023-06-26T12:06:28;8.02;;;4.28;;
19347;SDS011;9810;52.480;9.806;2023-06-26T12:09:00;5.22;;;3.70;;
19347;SDS011;9810;52.480;9.806;2023-06-26T12:11:28;8.13;;;4.13;;
19347;SDS011;9810;52.480;9.806;2023-06-26T12:13:57;9.40;;;3.92;;
19347;SDS011;9810;52.480;9.806;2023-06-26T12:16:24;7.28;;;4.18;;
19347;SDS011;9810;52.480;9.806;2023-06-26T12:18:57;7.32;;;4.10;;
19347;SDS011;9810;52.480;9.806;2023-06-26T12:21:28;7.43;;;4.30;;
19347;SDS011;9810;52.480;9.806;2023-06-26T12:24:14;6.25;;;3.28;;
19347;SDS011;9810;52.480;9.806;2023-06-26T12:26:43;5.03;;;3.75;;
19347;SDS011;9810;52.480;9.806;2023-06-26T12:29:12;6.43;;;3.30;;
19347;SDS011;9810;52.480;9.806;2023-06-26T12:31:42;8.88;;;3.88;;
19347;SDS011;9810;52.480;9.806;2023-06-26T12:34:11;6.80;;;3.40;;
19347;SDS011;9810;52.480;9.806;2023-06-26T12:36:42;5.28;;;3.25;;
19347;SDS011;9810;52.480;9.806;2023-06-26T12:39:11;7.15;;;2.80;;
19347;SDS011;9810;52.480;9.806;2023-06-26T12:41:59;5.70;;;3.28;;
19347;SDS011;9810;52.480;9.806;2023-06-26T12:44:28;6.13;;;3.80;;
19347;SDS011;9810;52.480;9.806;2023-06-26T12:46:58;5.63;;;3.85;;
19347;SDS011;9810;52.480;9.806;2023-06-26T12:49:31;6.82;;;3.58;;
19347;SDS011;9810;52.480;9.806;2023-06-26T12:52:00;7.60;;;3.40;;
19347;SDS011;9810;52.480;9.806;2023-06-26T12:54:28;4.22;;;3.03;;
19347;SDS011;9810;52.480;9.806;2023-06-26T12:56:58;7.20;;;3.60;;
19347;SDS011;9810;52.480;9.806;2023-06-26T12:59:25;3.78;;;3.10;;
19347;SDS011;9810;52.480;9.806;2023-06-26T13:01:52;4.43;;;3.45;;
19347;SDS011;9810;52.480;9.806;2023-06-26T13:04:20;5.20;;;2.72;;
19347;SDS011;9810;52.480;9.806;2023-06-26T13:06:47;3.95;;;2.28;;
19347;SDS011;9810;52.480;9.806;2023-06-26T13:09:15;3.85;;;2.35;;
19347;SDS011;9810;52.480;9.806;2023-06-26T13:11:42;5.13;;;2.88;;
19347;SDS011;9810;52.480;9.806;2023-06-26T13:14:12;6.57;;;2.60;;
19347;SDS011;9810;52.480;9.806;2023-06-26T13:16:39;4.18;;;3.00;;
19347;SDS011;9810;52.480;9.806;2023-06-26T13:19:07;5.05;;;2.70;;
19347;SDS011;9810;52.480;9.806;2023-06-26T13:21:35;4.50;;;2.65;;
19347;SDS011;9810;52.480;9.806;2023-06-26T13:24:02;2.38;;;2.17;;
19347;SDS011;9810;52.480;9.806;2023-06-26T13:26:31;5.70;;;2.38;;
19347;SDS011;9810;52.480;9.806;2023-06-26T13:28:58;3.08;;;2.58;;
19347;SDS011;9810;52.480;9.806;2023-06-26T13:31:27;4.72;;;2.58;;
19347;SDS011;9810;52.480;9.806;2023-06-26T13:33:56;5.22;;;2.50;;
19347;SDS011;9810;52.480;9.806;2023-06-26T13:36:24;4.38;;;2.42;;
19347;SDS011;9810;52.480;9.806;2023-06-26T13:38:52;4.55;;;2.53;;
19347;SDS011;9810;52.480;9.806;2023-06-26T13:41:21;5.38;;;2.00;;
19347;SDS011;9810;52.480;9.806;2023-06-26T13:43:49;5.78;;;2.08;;
19347;SDS011;9810;52.480;9.806;2023-06-26T13:46:16;9.95;;;2.38;;
19347;SDS011;9810;52.480;9.806;2023-06-26T13:48:45;3.78;;;2.22;;
19347;SDS011;9810;52.480;9.806;2023-06-26T13:51:13;5.60;;;2.25;;
19347;SDS011;9810;52.480;9.806;2023-06-26T13:53:43;3.75;;;2.05;;
19347;SDS011;9810;52.480;9.806;2023-06-26T13:56:11;5.03;;;1.85;;
19347;SDS011;9810;52.480;9.806;2023-06-26T13:58:38;3.00;;;2.05;;
19347;SDS011;9810;52.480;9.806;2023-06-26T14:01:05;6.82;;;2.08;;
19347;SDS011;9810;52.480;9.806;2023-06-26T14:03:32;3.83;;;2.15;;
19347;SDS011;9810;52.480;9.806;2023-06-26T14:06:01;5.97;;;2.05;;
19347;SDS011;9810;52.480;9.806;2023-06-26T14:08:29;4.30;;;2.05;;
19347;SDS011;9810;52.480;9.806;2023-06-26T14:10:56;5.68;;;1.92;;
19347;SDS011;9810;52.480;9.806;2023-06-26T14:13:25;3.15;;;1.80;;
19347;SDS011;9810;52.480;9.806;2023-06-26T14:15:52;4.65;;;1.67;;
19347;SDS011;9810;52.480;9.806;2023-06-26T14:18:21;4.47;;;1.90;;
19347;SDS011;9810;52.480;9.806;2023-06-26T14:20:49;7.63;;;2.13;;
19347;SDS011;9810;52.480;9.806;2023-06-26T14:23:18;4.82;;;1.60;;
19347;SDS011;9810;52.480;9.806;2023-06-26T14:25:45;3.90;;;2.03;;
19347;SDS011;9810;52.480;9.806;2023-06-26T14:28:12;4.30;;;2.00;;
19347;SDS011;9810;52.480;9.806;2023-06-26T14:30:40;4.32;;;1.90;;
19347;SDS011;9810;52.480;9.806;2023-06-26T14:33:07;4.40;;;1.70;;
19347;SDS011;9810;52.480;9.806;2023-06-26T14:35:34;5.60;;;1.70;;
19347;SDS011;9810;52.480;9.806;2023-06-26T14:38:02;5.35;;;1.77;;
19347;SDS011;9810;52.480;9.806;2023-06-26T14:40:31;6.68;;;1.63;;
19347;SDS011;9810;52.480;9.806;2023-06-26T14:42:58;4.40;;;1.52;;
19347;SDS011;9810;52.480;9.806;2023-06-26T14:45:26;5.85;;;1.60;;
19347;SDS011;9810;52.480;9.806;2023-06-26T14:47:53;7.88;;;1.77;;
19347;SDS011;9810;52.480;9.806;2023-06-26T14:50:20;2.50;;;1.60;;
19347;SDS011;9810;52.480;9.806;2023-06-26T14:52:48;4.13;;;1.75;;
19347;SDS011;9810;52.480;9.806;2023-06-26T14:55:15;3.45;;;1.40;;
19347;SDS011;9810;52.480;9.806;2023-06-26T14:57:44;2.83;;;1.73;;
19347;SDS011;9810;52.480;9.806;2023-06-26T15:00:11;4.60;;;1.70;;
19347;SDS011;9810;52.480;9.806;2023-06-26T15:02:39;3.95;;;1.85;;
19347;SDS011;9810;52.480;9.806;2023-06-26T15:05:07;4.10;;;1.30;;
19347;SDS011;9810;52.480;9.806;2023-06-26T15:07:34;3.85;;;1.70;;